sensor_id;sensor_type;location;lat;lon;timestamp;temperature;humidity
48860;DHT22;34679;51.436;-2.518;2024-03-22T00:01:51;10.40;99.90
48860;DHT22;34679;51.436;-2.518;2024-03-22T00:04:17;10.40;99.90
48860;DHT22;34679;51.436;-2.518;2024-03-22T00:06:44;10.40;99.90
48860;DHT22;34679;51.436;-2.518;2024-03-22T00:09:10;10.40;99.90
48860;DHT22;34679;51.436;-2.518;2024-03-22T00:11:36;10.40;99.90
48860;DHT22;34679;51.436;-2.518;2024-03-22T00:14:03;10.30;99.90
48860;DHT22;34679;51.436;-2.518;2024-03-22T00:16:28;10.30;99.90
48860;DHT22;34679;51.436;-2.518;2024-03-22T00:18:54;10.30;99.90
48860;DHT22;34679;51.436;-2.518;2024-03-22T00:21:21;10.30;99.90
48860;DHT22;34679;51.436;-2.518;2024-03-22T00:23:47;10.30;99.90
48860;DHT22;34679;51.436;-2.518;2024-03-22T00:26:13;10.30;99.90
48860;DHT22;34679;51.436;-2.518;2024-03-22T00:28:38;10.30;99.90
48860;DHT22;34679;51.436;-2.518;2024-03-22T00:31:04;10.30;99.90
48860;DHT22;34679;51.436;-2.518;2024-03-22T00:33:30;10.30;99.90
48860;DHT22;34679;51.436;-2.518;2024-03-22T00:35:55;10.30;99.90
48860;DHT22;34679;51.436;-2.518;2024-03-22T00:38:21;10.40;99.90
48860;DHT22;34679;51.436;-2.518;2024-03-22T00:40:47;10.30;99.90
48860;DHT22;34679;51.436;-2.518;2024-03-22T00:43:12;10.40;99.90
48860;DHT22;34679;51.436;-2.518;2024-03-22T00:45:38;10.40;99.90
48860;DHT22;34679;51.436;-2.518;2024-03-22T00:48:04;10.40;99.90
48860;DHT22;34679;51.436;-2.518;2024-03-22T00:50:30;10.40;99.90
48860;DHT22;34679;51.436;-2.518;2024-03-22T00:52:56;10.40;99.90
48860;DHT22;34679;51.436;-2.518;2024-03-22T00:55:22;10.40;99.90
48860;DHT22;34679;51.436;-2.518;2024-03-22T00:57:48;10.50;99.90
48860;DHT22;34679;51.436;-2.518;2024-03-22T01:00:15;10.50;99.90
48860;DHT22;34679;51.436;-2.518;2024-03-22T01:02:41;10.60;99.90
48860;DHT22;34679;51.436;-2.518;2024-03-22T01:05:07;10.50;99.90
48860;DHT22;34679;51.436;-2.518;2024-03-22T01:07:33;10.50;99.90
48860;DHT22;34679;51.436;-2.518;2024-03-22T01:09:58;10.50;99.90
48860;DHT22;34679;51.436;-2.518;2024-03-22T01:12:24;10.50;99.90
48860;DHT22;34679;51.436;-2.518;2024-03-22T01:14:50;10.50;99.90
48860;DHT22;34679;51.436;-2.518;2024-03-22T01:17:16;10.50;99.90
48860;DHT22;34679;51.436;-2.518;2024-03-22T01:19:42;10.50;99.90
48860;DHT22;34679;51.436;-2.518;2024-03-22T01:22:07;10.50;99.90
48860;DHT22;34679;51.436;-2.518;2024-03-22T01:24:33;10.50;99.90
48860;DHT22;34679;51.436;-2.518;2024-03-22T01:26:59;10.50;99.90
48860;DHT22;34679;51.436;-2.518;2024-03-22T01:29:24;10.50;99.90
48860;DHT22;34679;51.436;-2.518;2024-03-22T01:31:50;10.50;99.90
48860;DHT22;34679;51.436;-2.518;2024-03-22T01:34:16;10.50;99.90
48860;DHT22;34679;51.436;-2.518;2024-03-22T01:36:41;10.50;99.90
48860;DHT22;34679;51.436;-2.518;2024-03-22T01:39:07;10.50;99.90
48860;DHT22;34679;51.436;-2.518;2024-03-22T01:41:33;10.50;99.90
48860;DHT22;34679;51.436;-2.518;2024-03-22T01:43:59;10.50;99.90
48860;DHT22;34679;51.436;-2.518;2024-03-22T01:46:25;10.50;99.90
48860;DHT22;34679;51.436;-2.518;2024-03-22T01:48:51;10.40;99.90
48860;DHT22;34679;51.436;-2.518;2024-03-22T01:51:17;10.50;99.90
48860;DHT22;34679;51.436;-2.518;2024-03-22T01:53:43;10.40;99.90
48860;DHT22;34679;51.436;-2.518;2024-03-22T01:56:10;10.50;99.90
48860;DHT22;34679;51.436;-2.518;2024-03-22T01:58:36;10.50;99.90
48860;DHT22;34679;51.436;-2.518;2024-03-22T02:01:02;10.50;99.90
48860;DHT22;34679;51.436;-2.518;2024-03-22T02:03:28;10.50;99.90
48860;DHT22;34679;51.436;-2.518;2024-03-22T02:05:53;10.50;99.90
48860;DHT22;34679;51.436;-2.518;2024-03-22T02:08:19;10.40;99.90
48860;DHT22;34679;51.436;-2.518;2024-03-22T02:10:45;10.40;99.90
48860;DHT22;34679;51.436;-2.518;2024-03-22T02:13:12;10.40;99.90
48860;DHT22;34679;51.436;-2.518;2024-03-22T02:15:37;10.40;99.90
48860;DHT22;34679;51.436;-2.518;2024-03-22T02:18:03;10.50;99.90
48860;DHT22;34679;51.436;-2.518;2024-03-22T02:20:30;10.40;99.90
48860;DHT22;34679;51.436;-2.518;2024-03-22T02:22:55;10.30;99.90
48860;DHT22;34679;51.436;-2.518;2024-03-22T02:25:21;10.30;99.90
48860;DHT22;34679;51.436;-2.518;2024-03-22T02:27:49;10.30;99.90
48860;DHT22;34679;51.436;-2.518;2024-03-22T02:30:16;10.20;99.90
48860;DHT22;34679;51.436;-2.518;2024-03-22T02:32:42;10.20;99.90
48860;DHT22;34679;51.436;-2.518;2024-03-22T02:35:08;10.20;99.90
48860;DHT22;34679;51.436;-2.518;2024-03-22T02:37:34;10.20;99.90
48860;DHT22;34679;51.436;-2.518;2024-03-22T02:40:00;10.20;99.90
48860;DHT22;34679;51.436;-2.518;2024-03-22T02:42:25;10.20;99.90
48860;DHT22;34679;51.436;-2.518;2024-03-22T02:44:52;10.20;99.90
48860;DHT22;34679;51.436;-2.518;2024-03-22T02:47:17;10.10;99.90
48860;DHT22;34679;51.436;-2.518;2024-03-22T02:49:43;10.20;99.90
48860;DHT22;34679;51.436;-2.518;2024-03-22T02:52:09;10.20;99.90
48860;DHT22;34679;51.436;-2.518;2024-03-22T02:54:35;10.20;99.90
48860;DHT22;34679;51.436;-2.518;2024-03-22T02:57:00;9.40;99.90
48860;DHT22;34679;51.436;-2.518;2024-03-22T02:59:30;10.20;99.90
48860;DHT22;34679;51.436;-2.518;2024-03-22T03:01:56;10.20;99.90
48860;DHT22;34679;51.436;-2.518;2024-03-22T03:04:22;10.20;99.90
48860;DHT22;34679;51.436;-2.518;2024-03-22T03:06:47;10.30;99.90
48860;DHT22;34679;51.436;-2.518;2024-03-22T03:09:13;10.20;99.90
48860;DHT22;34679;51.436;-2.518;2024-03-22T03:11:39;10.30;99.90
48860;DHT22;34679;51.436;-2.518;2024-03-22T03:14:05;10.20;99.90
48860;DHT22;34679;51.436;-2.518;2024-03-22T03:16:31;10.30;99.90
48860;DHT22;34679;51.436;-2.518;2024-03-22T03:18:57;10.30;99.90
48860;DHT22;34679;51.436;-2.518;2024-03-22T03:21:23;10.30;99.90
48860;DHT22;34679;51.436;-2.518;2024-03-22T03:23:48;10.30;99.90
48860;DHT22;34679;51.436;-2.518;2024-03-22T03:26:14;10.30;99.90
48860;DHT22;34679;51.436;-2.518;2024-03-22T03:28:40;10.40;99.90
48860;DHT22;34679;51.436;-2.518;2024-03-22T03:31:05;10.40;99.90
48860;DHT22;34679;51.436;-2.518;2024-03-22T03:33:31;10.40;99.90
48860;DHT22;34679;51.436;-2.518;2024-03-22T03:35:57;10.40;99.90
48860;DHT22;34679;51.436;-2.518;2024-03-22T03:38:22;10.40;99.90
48860;DHT22;34679;51.436;-2.518;2024-03-22T03:40:48;10.50;99.90
48860;DHT22;34679;51.436;-2.518;2024-03-22T03:43:14;10.50;99.90
48860;DHT22;34679;51.436;-2.518;2024-03-22T03:45:40;10.60;99.90
48860;DHT22;34679;51.436;-2.518;2024-03-22T03:48:06;10.50;99.90
48860;DHT22;34679;51.436;-2.518;2024-03-22T03:50:31;10.50;99.90
48860;DHT22;34679;51.436;-2.518;2024-03-22T03:52:57;10.60;99.90
48860;DHT22;34679;51.436;-2.518;2024-03-22T03:55:23;10.60;99.90
48860;DHT22;34679;51.436;-2.518;2024-03-22T03:57:52;10.60;99.90
48860;DHT22;34679;51.436;-2.518;2024-03-22T04:00:21;10.60;99.90
48860;DHT22;34679;51.436;-2.518;2024-03-22T04:02:49;10.60;99.90
48860;DHT22;34679;51.436;-2.518;2024-03-22T04:05:15;10.60;99.90
48860;DHT22;34679;51.436;-2.518;2024-03-22T04:07:41;10.60;99.90
48860;DHT22;34679;51.436;-2.518;2024-03-22T04:10:08;10.60;99.90
48860;DHT22;34679;51.436;-2.518;2024-03-22T04:12:34;10.60;99.90
48860;DHT22;34679;51.436;-2.518;2024-03-22T04:15:00;10.50;99.90
48860;DHT22;34679;51.436;-2.518;2024-03-22T04:17:25;10.50;99.90
48860;DHT22;34679;51.436;-2.518;2024-03-22T04:19:51;10.50;99.90
48860;DHT22;34679;51.436;-2.518;2024-03-22T04:22:17;10.50;99.90
48860;DHT22;34679;51.436;-2.518;2024-03-22T04:24:44;10.50;99.90
48860;DHT22;34679;51.436;-2.518;2024-03-22T04:27:09;10.50;99.90
48860;DHT22;34679;51.436;-2.518;2024-03-22T04:29:35;10.50;99.90
48860;DHT22;34679;51.436;-2.518;2024-03-22T04:32:00;10.50;99.90
48860;DHT22;34679;51.436;-2.518;2024-03-22T04:34:26;10.50;99.90
48860;DHT22;34679;51.436;-2.518;2024-03-22T04:36:52;10.50;99.90
48860;DHT22;34679;51.436;-2.518;2024-03-22T04:39:19;10.50;99.90
48860;DHT22;34679;51.436;-2.518;2024-03-22T04:41:45;10.60;99.90
48860;DHT22;34679;51.436;-2.518;2024-03-22T04:44:11;10.50;99.90
48860;DHT22;34679;51.436;-2.518;2024-03-22T04:46:36;10.60;99.90
48860;DHT22;34679;51.436;-2.518;2024-03-22T04:49:02;10.60;99.90
48860;DHT22;34679;51.436;-2.518;2024-03-22T04:51:28;10.60;99.90
48860;DHT22;34679;51.436;-2.518;2024-03-22T04:53:53;10.60;99.90
48860;DHT22;34679;51.436;-2.518;2024-03-22T04:56:19;10.60;99.90
48860;DHT22;34679;51.436;-2.518;2024-03-22T04:58:45;10.60;99.90
48860;DHT22;34679;51.436;-2.518;2024-03-22T05:01:10;10.60;99.90
48860;DHT22;34679;51.436;-2.518;2024-03-22T05:03:38;10.60;99.90
48860;DHT22;34679;51.436;-2.518;2024-03-22T05:06:04;10.70;99.90
48860;DHT22;34679;51.436;-2.518;2024-03-22T05:08:32;10.70;99.90
48860;DHT22;34679;51.436;-2.518;2024-03-22T05:10:58;10.70;99.90
48860;DHT22;34679;51.436;-2.518;2024-03-22T05:13:23;10.70;99.90
48860;DHT22;34679;51.436;-2.518;2024-03-22T05:15:49;10.70;99.90
48860;DHT22;34679;51.436;-2.518;2024-03-22T05:18:15;10.70;99.90
48860;DHT22;34679;51.436;-2.518;2024-03-22T05:20:40;10.70;99.90
48860;DHT22;34679;51.436;-2.518;2024-03-22T05:23:06;10.80;99.90
48860;DHT22;34679;51.436;-2.518;2024-03-22T05:25:32;10.80;99.90
48860;DHT22;34679;51.436;-2.518;2024-03-22T05:27:57;10.80;99.90
48860;DHT22;34679;51.436;-2.518;2024-03-22T05:30:23;10.80;99.90
48860;DHT22;34679;51.436;-2.518;2024-03-22T05:32:49;10.80;99.90
48860;DHT22;34679;51.436;-2.518;2024-03-22T05:35:15;10.80;99.90
48860;DHT22;34679;51.436;-2.518;2024-03-22T05:37:41;10.80;99.90
48860;DHT22;34679;51.436;-2.518;2024-03-22T05:40:07;10.80;99.90
48860;DHT22;34679;51.436;-2.518;2024-03-22T05:42:34;10.80;99.90
48860;DHT22;34679;51.436;-2.518;2024-03-22T05:44:59;10.80;99.90
48860;DHT22;34679;51.436;-2.518;2024-03-22T05:47:25;10.80;99.90
48860;DHT22;34679;51.436;-2.518;2024-03-22T05:49:51;10.90;99.90
48860;DHT22;34679;51.436;-2.518;2024-03-22T05:52:18;10.90;99.90
48860;DHT22;34679;51.436;-2.518;2024-03-22T05:54:43;10.90;99.90
48860;DHT22;34679;51.436;-2.518;2024-03-22T05:57:10;10.90;99.90
48860;DHT22;34679;51.436;-2.518;2024-03-22T05:59:36;11.00;99.90
48860;DHT22;34679;51.436;-2.518;2024-03-22T06:02:02;11.00;99.90
48860;DHT22;34679;51.436;-2.518;2024-03-22T06:04:28;11.00;99.90
48860;DHT22;34679;51.436;-2.518;2024-03-22T06:06:54;11.00;99.90
48860;DHT22;34679;51.436;-2.518;2024-03-22T06:09:20;9.70;99.90
48860;DHT22;34679;51.436;-2.518;2024-03-22T06:12:05;11.00;99.90
48860;DHT22;34679;51.436;-2.518;2024-03-22T06:14:31;11.00;99.90
48860;DHT22;34679;51.436;-2.518;2024-03-22T06:16:56;11.00;99.90
48860;DHT22;34679;51.436;-2.518;2024-03-22T06:19:23;11.00;99.90
48860;DHT22;34679;51.436;-2.518;2024-03-22T06:21:49;11.00;99.90
48860;DHT22;34679;51.436;-2.518;2024-03-22T06:24:14;11.00;99.90
48860;DHT22;34679;51.436;-2.518;2024-03-22T06:26:40;11.00;99.90
48860;DHT22;34679;51.436;-2.518;2024-03-22T06:29:06;11.00;99.90
48860;DHT22;34679;51.436;-2.518;2024-03-22T06:31:31;11.00;99.90
48860;DHT22;34679;51.436;-2.518;2024-03-22T06:33:57;11.00;99.90
48860;DHT22;34679;51.436;-2.518;2024-03-22T06:36:31;11.00;99.90
48860;DHT22;34679;51.436;-2.518;2024-03-22T06:38:57;11.00;99.90
48860;DHT22;34679;51.436;-2.518;2024-03-22T06:41:23;10.90;99.90
48860;DHT22;34679;51.436;-2.518;2024-03-22T06:43:49;11.00;99.90
48860;DHT22;34679;51.436;-2.518;2024-03-22T06:46:14;10.90;99.90
48860;DHT22;34679;51.436;-2.518;2024-03-22T06:48:40;10.90;99.90
48860;DHT22;34679;51.436;-2.518;2024-03-22T06:51:06;10.90;99.90
48860;DHT22;34679;51.436;-2.518;2024-03-22T06:53:32;10.90;99.90
48860;DHT22;34679;51.436;-2.518;2024-03-22T06:55:57;11.00;99.90
48860;DHT22;34679;51.436;-2.518;2024-03-22T06:58:23;11.00;99.90
48860;DHT22;34679;51.436;-2.518;2024-03-22T07:00:49;10.90;99.90
48860;DHT22;34679;51.436;-2.518;2024-03-22T07:03:14;10.90;99.90
48860;DHT22;34679;51.436;-2.518;2024-03-22T07:05:40;10.90;99.90
48860;DHT22;34679;51.436;-2.518;2024-03-22T07:08:06;11.00;99.90
48860;DHT22;34679;51.436;-2.518;2024-03-22T07:10:32;11.00;99.90
48860;DHT22;34679;51.436;-2.518;2024-03-22T07:12:58;11.00;99.90
48860;DHT22;34679;51.436;-2.518;2024-03-22T07:15:24;11.00;99.90
48860;DHT22;34679;51.436;-2.518;2024-03-22T07:17:50;11.00;99.90
48860;DHT22;34679;51.436;-2.518;2024-03-22T07:20:16;11.00;99.90
48860;DHT22;34679;51.436;-2.518;2024-03-22T07:22:42;11.00;99.90
48860;DHT22;34679;51.436;-2.518;2024-03-22T07:25:08;11.00;99.90
48860;DHT22;34679;51.436;-2.518;2024-03-22T07:27:37;11.10;99.90
48860;DHT22;34679;51.436;-2.518;2024-03-22T07:30:03;11.10;99.90
48860;DHT22;34679;51.436;-2.518;2024-03-22T07:32:29;11.20;99.90
48860;DHT22;34679;51.436;-2.518;2024-03-22T07:34:55;11.20;99.90
48860;DHT22;34679;51.436;-2.518;2024-03-22T07:37:21;11.30;99.90
48860;DHT22;34679;51.436;-2.518;2024-03-22T07:39:47;11.20;99.90
48860;DHT22;34679;51.436;-2.518;2024-03-22T07:42:12;11.30;99.90
48860;DHT22;34679;51.436;-2.518;2024-03-22T07:44:38;11.20;99.90
48860;DHT22;34679;51.436;-2.518;2024-03-22T07:47:04;11.30;99.90
48860;DHT22;34679;51.436;-2.518;2024-03-22T07:49:30;11.40;99.90
48860;DHT22;34679;51.436;-2.518;2024-03-22T07:51:57;11.40;99.90
48860;DHT22;34679;51.436;-2.518;2024-03-22T07:54:22;11.30;99.90
48860;DHT22;34679;51.436;-2.518;2024-03-22T07:56:48;11.30;99.90
48860;DHT22;34679;51.436;-2.518;2024-03-22T07:59:14;11.30;99.90
48860;DHT22;34679;51.436;-2.518;2024-03-22T08:01:41;11.40;99.90
48860;DHT22;34679;51.436;-2.518;2024-03-22T08:04:07;11.30;99.90
48860;DHT22;34679;51.436;-2.518;2024-03-22T08:06:33;11.20;99.90
48860;DHT22;34679;51.436;-2.518;2024-03-22T08:08:58;11.20;99.90
48860;DHT22;34679;51.436;-2.518;2024-03-22T08:11:24;11.20;99.90
48860;DHT22;34679;51.436;-2.518;2024-03-22T08:13:50;11.20;99.90
48860;DHT22;34679;51.436;-2.518;2024-03-22T08:16:15;11.10;99.90
48860;DHT22;34679;51.436;-2.518;2024-03-22T08:18:41;11.10;99.90
48860;DHT22;34679;51.436;-2.518;2024-03-22T08:21:07;11.00;99.90
48860;DHT22;34679;51.436;-2.518;2024-03-22T08:23:32;10.80;99.90
48860;DHT22;34679;51.436;-2.518;2024-03-22T08:25:58;10.80;99.90
48860;DHT22;34679;51.436;-2.518;2024-03-22T08:28:24;10.70;99.90
48860;DHT22;34679;51.436;-2.518;2024-03-22T08:30:49;10.70;99.90
48860;DHT22;34679;51.436;-2.518;2024-03-22T08:33:15;10.70;99.90
48860;DHT22;34679;51.436;-2.518;2024-03-22T08:35:41;10.80;99.90
48860;DHT22;34679;51.436;-2.518;2024-03-22T08:38:06;10.80;99.90
48860;DHT22;34679;51.436;-2.518;2024-03-22T08:40:39;10.80;99.90
48860;DHT22;34679;51.436;-2.518;2024-03-22T08:43:05;10.90;99.90
48860;DHT22;34679;51.436;-2.518;2024-03-22T08:45:33;11.00;99.90
48860;DHT22;34679;51.436;-2.518;2024-03-22T08:47:59;11.00;99.90
48860;DHT22;34679;51.436;-2.518;2024-03-22T08:50:24;11.10;99.90
48860;DHT22;34679;51.436;-2.518;2024-03-22T08:52:50;11.20;99.90
48860;DHT22;34679;51.436;-2.518;2024-03-22T08:55:16;11.20;99.90
48860;DHT22;34679;51.436;-2.518;2024-03-22T08:57:42;11.20;99.90
48860;DHT22;34679;51.436;-2.518;2024-03-22T09:00:09;11.50;99.90
48860;DHT22;34679;51.436;-2.518;2024-03-22T09:02:36;11.50;99.90
48860;DHT22;34679;51.436;-2.518;2024-03-22T09:05:03;11.70;99.90
48860;DHT22;34679;51.436;-2.518;2024-03-22T09:07:29;11.80;99.90
48860;DHT22;34679;51.436;-2.518;2024-03-22T09:09:55;11.90;99.90
48860;DHT22;34679;51.436;-2.518;2024-03-22T09:12:21;11.80;99.90
48860;DHT22;34679;51.436;-2.518;2024-03-22T09:14:47;11.90;99.90
48860;DHT22;34679;51.436;-2.518;2024-03-22T09:17:12;11.90;99.90
48860;DHT22;34679;51.436;-2.518;2024-03-22T09:19:38;11.90;99.90
48860;DHT22;34679;51.436;-2.518;2024-03-22T09:22:04;11.80;99.90
48860;DHT22;34679;51.436;-2.518;2024-03-22T09:24:29;11.60;99.90
48860;DHT22;34679;51.436;-2.518;2024-03-22T09:26:55;11.60;99.90
48860;DHT22;34679;51.436;-2.518;2024-03-22T09:29:21;11.60;99.90
48860;DHT22;34679;51.436;-2.518;2024-03-22T09:31:46;11.60;99.90
48860;DHT22;34679;51.436;-2.518;2024-03-22T09:34:13;11.70;99.90
48860;DHT22;34679;51.436;-2.518;2024-03-22T09:36:38;11.70;99.90
48860;DHT22;34679;51.436;-2.518;2024-03-22T09:39:04;11.80;99.90
48860;DHT22;34679;51.436;-2.518;2024-03-22T09:41:32;11.80;99.90
48860;DHT22;34679;51.436;-2.518;2024-03-22T09:43:58;11.10;99.90
48860;DHT22;34679;51.436;-2.518;2024-03-22T09:46:27;12.00;99.90
48860;DHT22;34679;51.436;-2.518;2024-03-22T09:48:54;12.00;99.90
48860;DHT22;34679;51.436;-2.518;2024-03-22T09:51:21;12.00;99.90
48860;DHT22;34679;51.436;-2.518;2024-03-22T09:53:51;11.90;99.90
48860;DHT22;34679;51.436;-2.518;2024-03-22T09:56:20;11.90;99.90
48860;DHT22;34679;51.436;-2.518;2024-03-22T09:58:46;12.10;99.90
48860;DHT22;34679;51.436;-2.518;2024-03-22T10:01:12;12.10;99.90
48860;DHT22;34679;51.436;-2.518;2024-03-22T10:03:38;12.10;99.90
48860;DHT22;34679;51.436;-2.518;2024-03-22T10:06:04;12.10;99.90
48860;DHT22;34679;51.436;-2.518;2024-03-22T10:08:30;12.10;99.90
48860;DHT22;34679;51.436;-2.518;2024-03-22T10:10:56;12.20;99.90
48860;DHT22;34679;51.436;-2.518;2024-03-22T10:13:22;12.30;99.90
48860;DHT22;34679;51.436;-2.518;2024-03-22T10:15:47;12.40;99.90
48860;DHT22;34679;51.436;-2.518;2024-03-22T10:18:14;12.20;99.90
48860;DHT22;34679;51.436;-2.518;2024-03-22T10:20:40;12.10;99.90
48860;DHT22;34679;51.436;-2.518;2024-03-22T10:23:08;12.20;99.90
48860;DHT22;34679;51.436;-2.518;2024-03-22T10:25:34;12.10;99.90
48860;DHT22;34679;51.436;-2.518;2024-03-22T10:28:01;12.20;99.90
48860;DHT22;34679;51.436;-2.518;2024-03-22T10:30:27;12.00;99.90
48860;DHT22;34679;51.436;-2.518;2024-03-22T10:32:53;12.20;99.90
48860;DHT22;34679;51.436;-2.518;2024-03-22T10:35:19;12.20;99.90
48860;DHT22;34679;51.436;-2.518;2024-03-22T10:37:45;12.30;99.90
48860;DHT22;34679;51.436;-2.518;2024-03-22T10:40:11;12.30;99.90
48860;DHT22;34679;51.436;-2.518;2024-03-22T10:42:38;12.20;99.90
48860;DHT22;34679;51.436;-2.518;2024-03-22T10:45:05;12.20;99.90
48860;DHT22;34679;51.436;-2.518;2024-03-22T10:47:33;12.30;99.90
48860;DHT22;34679;51.436;-2.518;2024-03-22T10:50:11;12.30;99.90
48860;DHT22;34679;51.436;-2.518;2024-03-22T10:52:58;12.40;99.90
48860;DHT22;34679;51.436;-2.518;2024-03-22T10:55:28;12.60;99.90
48860;DHT22;34679;51.436;-2.518;2024-03-22T10:57:57;12.60;99.90
48860;DHT22;34679;51.436;-2.518;2024-03-22T11:00:29;12.60;99.90
48860;DHT22;34679;51.436;-2.518;2024-03-22T11:02:55;12.60;99.90
48860;DHT22;34679;51.436;-2.518;2024-03-22T11:05:21;12.60;99.90
48860;DHT22;34679;51.436;-2.518;2024-03-22T11:07:47;12.80;99.90
48860;DHT22;34679;51.436;-2.518;2024-03-22T11:10:14;12.60;99.90
48860;DHT22;34679;51.436;-2.518;2024-03-22T11:12:40;12.60;99.90
48860;DHT22;34679;51.436;-2.518;2024-03-22T11:15:07;12.40;99.90
48860;DHT22;34679;51.436;-2.518;2024-03-22T11:17:33;12.50;99.90
48860;DHT22;34679;51.436;-2.518;2024-03-22T11:19:59;12.60;99.90
48860;DHT22;34679;51.436;-2.518;2024-03-22T11:22:28;12.60;99.90
48860;DHT22;34679;51.436;-2.518;2024-03-22T11:24:54;12.50;99.90
48860;DHT22;34679;51.436;-2.518;2024-03-22T11:27:19;12.40;99.90
48860;DHT22;34679;51.436;-2.518;2024-03-22T11:29:45;12.40;99.90
48860;DHT22;34679;51.436;-2.518;2024-03-22T11:32:12;12.50;99.90
48860;DHT22;34679;51.436;-2.518;2024-03-22T11:34:39;12.50;99.90
48860;DHT22;34679;51.436;-2.518;2024-03-22T11:37:06;12.40;99.90
48860;DHT22;34679;51.436;-2.518;2024-03-22T11:39:36;12.50;99.90
48860;DHT22;34679;51.436;-2.518;2024-03-22T11:42:06;12.40;99.90
48860;DHT22;34679;51.436;-2.518;2024-03-22T11:44:33;12.50;99.90
48860;DHT22;34679;51.436;-2.518;2024-03-22T11:47:01;12.50;99.90
48860;DHT22;34679;51.436;-2.518;2024-03-22T11:49:26;12.50;99.90
48860;DHT22;34679;51.436;-2.518;2024-03-22T11:51:52;12.50;99.90
48860;DHT22;34679;51.436;-2.518;2024-03-22T11:54:21;12.80;99.90
48860;DHT22;34679;51.436;-2.518;2024-03-22T11:56:47;12.60;99.90
48860;DHT22;34679;51.436;-2.518;2024-03-22T11:59:13;12.70;99.90
48860;DHT22;34679;51.436;-2.518;2024-03-22T12:01:38;12.80;99.90
48860;DHT22;34679;51.436;-2.518;2024-03-22T12:04:05;12.50;99.90
48860;DHT22;34679;51.436;-2.518;2024-03-22T12:06:34;12.50;99.90
48860;DHT22;34679;51.436;-2.518;2024-03-22T12:09:00;12.50;99.90
48860;DHT22;34679;51.436;-2.518;2024-03-22T12:11:26;12.50;99.90
48860;DHT22;34679;51.436;-2.518;2024-03-22T12:13:51;12.70;99.90
48860;DHT22;34679;51.436;-2.518;2024-03-22T12:16:17;12.80;99.90
48860;DHT22;34679;51.436;-2.518;2024-03-22T12:18:43;13.10;99.90
48860;DHT22;34679;51.436;-2.518;2024-03-22T12:21:09;13.30;99.90
48860;DHT22;34679;51.436;-2.518;2024-03-22T12:23:35;13.60;99.90
48860;DHT22;34679;51.436;-2.518;2024-03-22T12:26:00;13.90;99.90
48860;DHT22;34679;51.436;-2.518;2024-03-22T12:28:26;13.60;99.90
48860;DHT22;34679;51.436;-2.518;2024-03-22T12:30:55;13.80;99.90
48860;DHT22;34679;51.436;-2.518;2024-03-22T12:33:21;13.80;99.90
48860;DHT22;34679;51.436;-2.518;2024-03-22T12:35:47;13.70;99.90
48860;DHT22;34679;51.436;-2.518;2024-03-22T12:38:13;13.70;99.90
48860;DHT22;34679;51.436;-2.518;2024-03-22T12:40:40;13.60;99.90
48860;DHT22;34679;51.436;-2.518;2024-03-22T12:43:06;13.50;99.90
48860;DHT22;34679;51.436;-2.518;2024-03-22T12:45:34;13.50;99.90
48860;DHT22;34679;51.436;-2.518;2024-03-22T12:48:00;13.50;99.90
48860;DHT22;34679;51.436;-2.518;2024-03-22T12:50:26;13.60;99.90
48860;DHT22;34679;51.436;-2.518;2024-03-22T12:52:52;13.50;99.90
48860;DHT22;34679;51.436;-2.518;2024-03-22T12:55:18;13.50;99.90
48860;DHT22;34679;51.436;-2.518;2024-03-22T12:57:43;13.50;99.90
48860;DHT22;34679;51.436;-2.518;2024-03-22T13:00:09;13.60;99.90
48860;DHT22;34679;51.436;-2.518;2024-03-22T13:02:41;13.80;99.90
48860;DHT22;34679;51.436;-2.518;2024-03-22T13:05:08;13.90;99.90
48860;DHT22;34679;51.436;-2.518;2024-03-22T13:07:34;13.80;99.90
48860;DHT22;34679;51.436;-2.518;2024-03-22T13:10:00;14.00;99.90
48860;DHT22;34679;51.436;-2.518;2024-03-22T13:12:26;14.20;99.90
48860;DHT22;34679;51.436;-2.518;2024-03-22T13:14:52;14.20;99.90
48860;DHT22;34679;51.436;-2.518;2024-03-22T13:17:18;14.20;99.90
48860;DHT22;34679;51.436;-2.518;2024-03-22T13:19:44;14.20;99.90
48860;DHT22;34679;51.436;-2.518;2024-03-22T13:22:10;14.10;99.90
48860;DHT22;34679;51.436;-2.518;2024-03-22T13:24:35;13.90;99.90
48860;DHT22;34679;51.436;-2.518;2024-03-22T13:27:01;13.90;99.90
48860;DHT22;34679;51.436;-2.518;2024-03-22T13:29:28;13.80;99.90
48860;DHT22;34679;51.436;-2.518;2024-03-22T13:31:54;13.90;99.90
48860;DHT22;34679;51.436;-2.518;2024-03-22T13:34:19;13.60;99.90
48860;DHT22;34679;51.436;-2.518;2024-03-22T13:36:45;13.50;99.90
48860;DHT22;34679;51.436;-2.518;2024-03-22T13:39:11;13.70;99.90
48860;DHT22;34679;51.436;-2.518;2024-03-22T13:41:36;13.80;99.90
48860;DHT22;34679;51.436;-2.518;2024-03-22T13:44:02;14.00;99.90
48860;DHT22;34679;51.436;-2.518;2024-03-22T13:46:29;13.90;99.90
48860;DHT22;34679;51.436;-2.518;2024-03-22T13:48:55;14.00;99.90
48860;DHT22;34679;51.436;-2.518;2024-03-22T13:51:21;14.40;99.90
48860;DHT22;34679;51.436;-2.518;2024-03-22T13:53:47;14.50;99.90
48860;DHT22;34679;51.436;-2.518;2024-03-22T13:56:13;14.60;99.90
48860;DHT22;34679;51.436;-2.518;2024-03-22T13:58:38;14.60;99.90
48860;DHT22;34679;51.436;-2.518;2024-03-22T14:01:04;14.50;99.90
48860;DHT22;34679;51.436;-2.518;2024-03-22T14:03:30;14.30;99.90
48860;DHT22;34679;51.436;-2.518;2024-03-22T14:05:56;13.90;99.90
48860;DHT22;34679;51.436;-2.518;2024-03-22T14:08:21;13.90;99.90
48860;DHT22;34679;51.436;-2.518;2024-03-22T14:10:47;13.80;99.90
48860;DHT22;34679;51.436;-2.518;2024-03-22T14:13:13;13.90;99.90
48860;DHT22;34679;51.436;-2.518;2024-03-22T14:15:40;13.80;99.90
48860;DHT22;34679;51.436;-2.518;2024-03-22T14:18:06;13.80;99.90
48860;DHT22;34679;51.436;-2.518;2024-03-22T14:20:31;14.00;99.90
48860;DHT22;34679;51.436;-2.518;2024-03-22T14:22:57;13.90;99.90
48860;DHT22;34679;51.436;-2.518;2024-03-22T14:25:23;13.70;99.90
48860;DHT22;34679;51.436;-2.518;2024-03-22T14:27:49;13.90;99.90
48860;DHT22;34679;51.436;-2.518;2024-03-22T14:30:14;14.10;99.90
48860;DHT22;34679;51.436;-2.518;2024-03-22T14:32:41;14.20;99.90
48860;DHT22;34679;51.436;-2.518;2024-03-22T14:35:07;14.30;99.90
48860;DHT22;34679;51.436;-2.518;2024-03-22T14:37:34;14.20;99.90
48860;DHT22;34679;51.436;-2.518;2024-03-22T14:40:00;14.30;99.90
48860;DHT22;34679;51.436;-2.518;2024-03-22T14:42:26;14.30;99.90
48860;DHT22;34679;51.436;-2.518;2024-03-22T14:44:51;14.20;99.90
48860;DHT22;34679;51.436;-2.518;2024-03-22T14:47:17;14.10;99.90
48860;DHT22;34679;51.436;-2.518;2024-03-22T14:49:44;14.00;99.90
48860;DHT22;34679;51.436;-2.518;2024-03-22T14:52:10;14.00;99.90
48860;DHT22;34679;51.436;-2.518;2024-03-22T14:54:36;13.90;99.90
48860;DHT22;34679;51.436;-2.518;2024-03-22T14:57:01;13.70;99.90
48860;DHT22;34679;51.436;-2.518;2024-03-22T14:59:28;13.70;99.90
48860;DHT22;34679;51.436;-2.518;2024-03-22T15:01:56;13.80;99.90
48860;DHT22;34679;51.436;-2.518;2024-03-22T15:04:23;13.80;99.90
48860;DHT22;34679;51.436;-2.518;2024-03-22T15:06:49;13.80;99.90
48860;DHT22;34679;51.436;-2.518;2024-03-22T15:09:19;13.90;99.90